Time;durP1;ratioP1;P1;durP2;ratioP2;P2;SDS_P1;SDS_P2;PMS_P1;PMS_P2;Temp;Humidity;BMP_temperature;BMP_pressure;BME280_temperature;BME280_humidity;BME280_pressure;Samples;Min_cycle;Max_cycle;Signal;HPM_P1;HPM_P2
2021/05/15 00:02:21;;;;;;;0.60;0.50;;;11.70;90.20;;;;;;5092463;28;20034;-83
2021/05/15 00:04:47;;;;;;;0.85;0.65;;;11.70;90.20;;;;;;5095945;28;20020;-83
2021/05/15 00:07:12;;;;;;;1.88;0.80;;;11.70;90.20;;;;;;5080019;28;20379;-82
2021/05/15 00:09:38;;;;;;;0.60;0.50;;;11.70;90.40;;;;;;5075766;28;20376;-83
2021/05/15 00:12:04;;;;;;;0.73;0.57;;;11.70;90.10;;;;;;5075594;28;20036;-82
2021/05/15 00:14:31;;;;;;;0.80;0.57;;;11.80;89.90;;;;;;5075435;28;20016;-82
2021/05/15 00:16:57;;;;;;;0.55;0.50;;;11.70;90.10;;;;;;5075286;28;20024;-82
2021/05/15 00:19:22;;;;;;;1.42;0.70;;;11.60;90.00;;;;;;5075315;28;20020;-82
2021/05/15 00:21:48;;;;;;;1.20;0.60;;;11.70;90.00;;;;;;5075416;28;20163;-82
2021/05/15 00:24:14;;;;;;;0.77;0.52;;;11.70;90.10;;;;;;5074968;28;20159;-82
2021/05/15 00:26:39;;;;;;;0.60;0.50;;;11.70;90.00;;;;;;5075177;28;20033;-82
2021/05/15 00:29:08;;;;;;;0.63;0.60;;;11.70;90.20;;;;;;5075064;28;20044;-83
2021/05/15 00:31:38;;;;;;;1.20;0.60;;;11.70;90.00;;;;;;5090750;28;20036;-82
2021/05/15 00:34:05;;;;;;;0.50;0.40;;;11.70;90.40;;;;;;5075007;28;20029;-82
2021/05/15 00:36:31;;;;;;;0.80;0.60;;;11.70;90.10;;;;;;5094052;28;20108;-81
2021/05/15 00:38:56;;;;;;;0.68;0.52;;;11.70;90.20;;;;;;5074062;28;20515;-82
2021/05/15 00:41:22;;;;;;;1.60;0.75;;;11.70;90.10;;;;;;5073918;28;20024;-82
2021/05/15 00:44:13;;;;;;;1.30;0.60;;;11.70;89.90;;;;;;5074992;28;20096;-82
2021/05/15 00:46:39;;;;;;;1.27;0.63;;;11.80;90.20;;;;;;5090726;28;20452;-82
2021/05/15 00:49:06;;;;;;;1.92;0.55;;;11.80;90.20;;;;;;5074730;28;20103;-82
2021/05/15 00:51:33;;;;;;;0.82;0.65;;;11.80;90.20;;;;;;5079106;28;20020;-83
2021/05/15 00:54:03;;;;;;;0.60;0.60;;;11.80;90.40;;;;;;5078845;28;20170;-83
2021/05/15 00:56:29;;;;;;;1.67;0.60;;;11.80;90.20;;;;;;5079060;28;20388;-82
2021/05/15 00:58:56;;;;;;;0.60;0.50;;;11.90;90.30;;;;;;5078654;28;20035;-82
2021/05/15 01:01:23;;;;;;;0.50;0.40;;;11.80;90.30;;;;;;5078846;28;20025;-83
2021/05/15 01:03:49;;;;;;;0.70;0.60;;;11.80;90.40;;;;;;5078700;28;20039;-83
2021/05/15 01:06:15;;;;;;;0.95;0.68;;;11.80;90.60;;;;;;5079243;28;20056;-83
2021/05/15 01:08:45;;;;;;;1.52;0.70;;;11.70;90.60;;;;;;5078543;28;20025;-83
2021/05/15 01:11:14;;;;;;;1.50;0.68;;;11.70;90.80;;;;;;5078778;28;20025;-82
2021/05/15 01:13:53;;;;;;;0.70;0.60;;;11.80;90.80;;;;;;5094425;28;20403;-82
2021/05/15 01:16:19;;;;;;;0.80;0.50;;;11.80;90.70;;;;;;5078584;28;20439;-82
2021/05/15 01:18:45;;;;;;;1.08;0.57;;;11.80;91.10;;;;;;5078104;28;20077;-82
2021/05/15 01:21:12;;;;;;;0.57;0.57;;;11.80;90.60;;;;;;5098461;28;20046;-82
2021/05/15 01:23:38;;;;;;;0.80;0.63;;;11.80;90.80;;;;;;5098729;28;20020;-83
2021/05/15 01:26:18;;;;;;;0.65;0.55;;;11.80;90.80;;;;;;5080974;28;20036;-82
2021/05/15 01:28:45;;;;;;;;;;;11.80;90.80;;;;;;5096786;28;20047;-82
2021/05/15 01:31:12;;;;;;;0.57;0.50;;;11.80;90.90;;;;;;5098554;28;19911;-82
2021/05/15 01:33:58;;;;;;;0.70;0.50;;;11.80;91.00;;;;;;5098572;28;20032;-82
2021/05/15 01:36:25;;;;;;;0.60;0.50;;;11.90;90.80;;;;;;5090584;28;20040;-83
2021/05/15 01:38:51;;;;;;;0.70;0.60;;;11.90;90.90;;;;;;5098277;28;20020;-83
2021/05/15 01:41:18;;;;;;;1.25;0.68;;;11.90;90.50;;;;;;5090757;28;20027;-83
2021/05/15 01:43:45;;;;;;;0.70;0.50;;;11.90;90.90;;;;;;5078166;28;20029;-83
2021/05/15 01:46:11;;;;;;;0.93;0.50;;;11.90;90.80;;;;;;5078100;28;20394;-83
2021/05/15 01:48:38;;;;;;;1.00;0.55;;;11.80;91.00;;;;;;5077961;28;20020;-83
2021/05/15 01:51:04;;;;;;;0.52;0.50;;;11.80;91.10;;;;;;5077787;28;20398;-83
2021/05/15 01:53:33;;;;;;;0.60;0.50;;;11.90;91.10;;;;;;5078003;28;20040;-83
2021/05/15 01:56:00;;;;;;;0.50;0.47;;;11.80;91.20;;;;;;5077845;28;20032;-83
2021/05/15 01:58:27;;;;;;;0.70;0.60;;;11.90;91.20;;;;;;5077677;28;20020;-82
2021/05/15 02:00:54;;;;;;;0.80;0.50;;;11.90;91.20;;;;;;5077279;28;20043;-83
2021/05/15 02:03:23;;;;;;;0.50;0.40;;;11.90;91.10;;;;;;5077715;28;20025;-83
2021/05/15 02:05:53;;;;;;;0.50;0.40;;;11.90;91.30;;;;;;5077655;28;20090;-83
2021/05/15 02:08:20;;;;;;;0.77;0.50;;;11.90;91.20;;;;;;5077676;28;20052;-83
2021/05/15 02:10:46;;;;;;;0.93;0.50;;;11.90;91.40;;;;;;5077410;28;20550;-83
2021/05/15 02:13:12;;;;;;;1.25;0.52;;;12.00;91.50;;;;;;5077592;28;20040;-82
2021/05/15 02:15:39;;;;;;;0.50;0.50;;;12.00;91.60;;;;;;5077373;28;20858;-83
2021/05/15 02:18:06;;;;;;;0.60;0.50;;;12.00;91.50;;;;;;5077313;28;20117;-82
2021/05/15 02:20:33;;;;;;;0.52;0.40;;;12.00;91.70;;;;;;5077409;28;20017;-84
2021/05/15 02:22:59;;;;;;;0.65;0.43;;;12.10;91.40;;;;;;5077339;28;20056;-83
2021/05/15 02:25:29;;;;;;;0.65;0.50;;;12.20;91.30;;;;;;5077105;28;20099;-82
2021/05/15 02:27:55;;;;;;;0.55;0.45;;;12.30;91.00;;;;;;5077208;28;20155;-83
2021/05/15 02:30:23;;;;;;;0.50;0.50;;;12.30;90.80;;;;;;5095572;28;20406;-83
2021/05/15 02:32:48;;;;;;;0.82;0.50;;;12.30;90.90;;;;;;5097348;28;20028;-83
2021/05/15 02:35:15;;;;;;;0.50;0.40;;;12.30;91.00;;;;;;5097335;28;20084;-83
2021/05/15 02:37:41;;;;;;;2.38;0.50;;;12.30;91.00;;;;;;5086680;28;20031;-82
2021/05/15 02:40:08;;;;;;;0.43;0.40;;;12.30;91.20;;;;;;5076982;28;20390;-82
2021/05/15 02:42:37;;;;;;;0.52;0.40;;;12.40;90.90;;;;;;5076854;28;20031;-82
2021/05/15 02:45:08;;;;;;;0.60;0.52;;;12.50;90.70;;;;;;5092828;28;20073;-82
2021/05/15 02:47:34;;;;;;;0.85;0.40;;;12.60;90.60;;;;;;5095437;28;20081;-82
2021/05/15 02:50:00;;;;;;;0.75;0.40;;;12.70;90.50;;;;;;5097299;28;20719;-83
2021/05/15 02:52:26;;;;;;;0.88;0.50;;;12.70;90.60;;;;;;5097188;28;20406;-83
2021/05/15 02:54:52;;;;;;;0.50;0.40;;;12.60;90.60;;;;;;5087916;28;20035;-83
2021/05/15 02:57:19;;;;;;;0.80;0.57;;;12.60;90.90;;;;;;5075450;28;20127;-83
2021/05/15 02:59:44;;;;;;;0.70;0.40;;;12.60;90.70;;;;;;5076467;28;20033;-82
2021/05/15 03:02:10;;;;;;;0.70;0.50;;;12.60;90.70;;;;;;5076663;28;20076;-82
2021/05/15 03:04:36;;;;;;;1.00;0.60;;;12.70;90.50;;;;;;5076479;28;20032;-82
2021/05/15 03:07:01;;;;;;;1.88;0.60;;;12.70;90.30;;;;;;5075054;28;20020;-82
2021/05/15 03:09:27;;;;;;;0.70;0.57;;;12.70;90.50;;;;;;5076455;28;20040;-82
2021/05/15 03:11:53;;;;;;;0.80;0.70;;;12.70;90.60;;;;;;5075793;28;20041;-83
2021/05/15 03:14:19;;;;;;;1.80;0.70;;;12.70;90.80;;;;;;5090446;28;20032;-82
2021/05/15 03:16:47;;;;;;;2.60;0.90;;;12.80;90.60;;;;;;5074986;28;20459;-82
2021/05/15 03:19:13;;;;;;;2.28;0.70;;;12.80;90.30;;;;;;5076057;28;20032;-83
2021/05/15 03:21:38;;;;;;;1.95;0.70;;;12.80;90.30;;;;;;5076119;28;20028;-82
2021/05/15 03:24:04;;;;;;;1.38;0.80;;;12.80;90.30;;;;;;5076342;28;20016;-82
2021/05/15 03:26:30;;;;;;;1.25;0.77;;;12.70;90.30;;;;;;5076035;28;20400;-82
2021/05/15 03:28:56;;;;;;;1.60;0.80;;;12.70;90.10;;;;;;5084781;28;20488;-82
2021/05/15 03:31:22;;;;;;;1.77;0.70;;;12.70;90.50;;;;;;5096269;28;20390;-82
2021/05/15 03:33:47;;;;;;;1.65;0.80;;;12.70;90.30;;;;;;5096222;28;20024;-82
2021/05/15 03:36:13;;;;;;;2.60;0.82;;;12.60;90.80;;;;;;5094664;28;20054;-83
2021/05/15 03:38:39;;;;;;;1.38;0.88;;;12.70;90.30;;;;;;5094490;28;20073;-82
2021/05/15 03:41:04;;;;;;;2.28;1.20;;;12.60;90.60;;;;;;5096055;28;20080;-82
2021/05/15 03:43:30;;;;;;;1.38;0.90;;;12.60;90.30;;;;;;5096130;28;20085;-82
2021/05/15 03:45:56;;;;;;;3.08;1.00;;;12.60;90.10;;;;;;5094858;28;20123;-82
2021/05/15 03:48:22;;;;;;;2.30;0.93;;;12.70;90.10;;;;;;5095935;28;20035;-82
2021/05/15 03:50:51;;;;;;;1.40;1.10;;;12.70;90.30;;;;;;5095822;28;20028;-82
2021/05/15 03:53:18;;;;;;;1.55;1.10;;;12.60;90.00;;;;;;5095942;28;20121;-82
2021/05/15 03:55:44;;;;;;;2.15;0.85;;;12.60;90.10;;;;;;5089844;28;20041;-82
2021/05/15 03:58:10;;;;;;;2.03;1.25;;;12.60;90.00;;;;;;5075516;28;20430;-82
2021/05/15 04:00:36;;;;;;;3.03;1.10;;;12.70;89.60;;;;;;5075547;28;20038;-82
2021/05/15 04:03:02;;;;;;;1.77;0.90;;;12.60;90.00;;;;;;5074047;28;20028;-82
2021/05/15 04:05:27;;;;;;;2.15;1.33;;;12.60;89.10;;;;;;5075512;28;20024;-82
2021/05/15 04:07:53;;;;;;;2.15;1.10;;;12.60;89.60;;;;;;5091823;28;20020;-83
2021/05/15 04:10:20;;;;;;;4.25;1.10;;;12.50;89.70;;;;;;5095695;28;20027;-82
2021/05/15 04:12:52;;;;;;;3.63;1.50;;;12.40;89.40;;;;;;5089586;28;20024;-82
2021/05/15 04:18:12;;;;;;;3.97;1.10;;;12.40;89.90;;;;;;5072789;28;20398;-82
2021/05/15 04:20:38;;;;;;;4.60;1.20;;;12.40;89.60;;;;;;5074050;28;20383;-82
2021/05/15 04:23:05;;;;;;;2.95;1.40;;;12.30;89.80;;;;;;5075216;28;20398;-82
2021/05/15 04:25:31;;;;;;;2.97;1.10;;;12.30;90.60;;;;;;5074851;28;20039;-82
2021/05/15 04:27:57;;;;;;;4.82;1.40;;;12.30;90.10;;;;;;5075076;28;20041;-82
2021/05/15 04:30:24;;;;;;;3.47;1.40;;;12.30;90.40;;;;;;5077639;28;20020;-82
2021/05/15 04:32:50;;;;;;;3.78;1.60;;;12.30;90.30;;;;;;5084296;28;20020;-82
2021/05/15 04:35:16;;;;;;;3.28;1.35;;;12.30;90.20;;;;;;5075083;28;20021;-82
2021/05/15 04:37:42;;;;;;;6.47;2.25;;;12.40;90.20;;;;;;5090528;28;20024;-83
2021/05/15 04:40:08;;;;;;;6.60;2.38;;;12.40;90.20;;;;;;5093871;28;20036;-82
2021/05/15 04:42:38;;;;;;;4.85;1.52;;;12.50;90.30;;;;;;5076877;28;20483;-83
2021/05/15 04:45:12;;;;;;;7.18;1.90;;;12.40;90.70;;;;;;5075116;28;20020;-82
2021/05/15 04:47:39;;;;;;;12.15;2.47;;;12.50;90.60;;;;;;5075157;28;20059;-82
2021/05/15 04:50:07;;;;;;;9.38;2.75;;;12.50;90.80;;;;;;5075011;28;20021;-82
2021/05/15 04:52:32;;;;;;;10.43;3.00;;;12.50;90.70;;;;;;5075170;28;20040;-82
2021/05/15 04:54:58;;;;;;;7.97;2.40;;;12.70;90.40;;;;;;5074742;28;20033;-83
2021/05/15 04:57:24;;;;;;;9.07;2.70;;;12.70;90.60;;;;;;5075017;28;20102;-82
2021/05/15 04:59:50;;;;;;;10.45;2.97;;;12.80;90.50;;;;;;5074945;28;20139;-83
2021/05/15 05:02:15;;;;;;;9.20;2.63;;;12.80;90.50;;;;;;5074762;28;20059;-82
2021/05/15 05:04:41;;;;;;;13.15;3.03;;;12.90;90.50;;;;;;5074980;28;20028;-82
2021/05/15 05:07:07;;;;;;;11.45;2.65;;;12.90;90.20;;;;;;5074963;28;20017;-82
2021/05/15 05:09:33;;;;;;;16.65;3.00;;;13.00;90.30;;;;;;5089265;28;20035;-82
2021/05/15 05:11:59;;;;;;;12.40;3.00;;;12.90;90.70;;;;;;5091084;28;20020;-82
2021/05/15 05:14:25;;;;;;;13.15;3.30;;;12.90;90.20;;;;;;5092418;28;20024;-83
2021/05/15 05:16:54;;;;;;;11.20;2.75;;;13.00;90.40;;;;;;5091543;28;20052;-82
2021/05/15 05:19:24;;;;;;;7.63;2.53;;;13.00;90.40;;;;;;5089863;28;20024;-83
2021/05/15 05:21:50;;;;;;;11.83;2.93;;;13.00;90.60;;;;;;5090208;28;20358;-82
2021/05/15 05:24:17;;;;;;;10.48;3.03;;;13.00;90.60;;;;;;5092817;28;20019;-82
2021/05/15 05:26:43;;;;;;;13.57;3.58;;;13.00;90.20;;;;;;5091046;28;20119;-83
2021/05/15 05:29:09;;;;;;;14.20;2.70;;;13.10;90.50;;;;;;5092552;28;20051;-78
2021/05/15 05:31:36;;;;;;;9.68;2.97;;;13.10;90.40;;;;;;5091861;28;20028;-81
2021/05/15 05:34:03;;;;;;;13.52;3.45;;;13.20;90.50;;;;;;5091516;28;20867;-82
2021/05/15 05:36:29;;;;;;;10.93;2.95;;;13.20;90.10;;;;;;5092801;28;20027;-84
2021/05/15 05:38:55;;;;;;;10.43;2.92;;;13.20;90.10;;;;;;5096253;28;20626;-81
2021/05/15 05:41:23;;;;;;;13.85;3.50;;;13.30;90.10;;;;;;5092774;28;20020;-86
2021/05/15 05:43:49;;;;;;;8.43;2.45;;;13.40;89.70;;;;;;5096245;28;20024;-85
2021/05/15 05:46:15;;;;;;;15.63;3.90;;;13.40;89.50;;;;;;5096028;28;20081;-85
2021/05/15 05:48:41;;;;;;;12.32;3.35;;;13.40;89.70;;;;;;5097878;28;20473;-84
2021/05/15 05:51:06;;;;;;;11.82;2.95;;;13.40;89.70;;;;;;5097797;28;20027;-85
2021/05/15 05:53:32;;;;;;;14.73;3.33;;;13.40;90.00;;;;;;5097995;28;20024;-84
2021/05/15 05:55:58;;;;;;;14.13;3.53;;;13.40;90.00;;;;;;5089165;28;20028;-86
2021/05/15 05:58:23;;;;;;;9.50;3.80;;;13.50;89.50;;;;;;5094699;28;20267;-83
2021/05/15 06:00:49;;;;;;;14.30;3.35;;;13.50;89.80;;;;;;5094387;28;20111;-82
2021/05/15 06:03:15;;;;;;;9.35;2.78;;;13.60;89.30;;;;;;5082431;28;20140;-82
2021/05/15 06:05:40;;;;;;;12.45;3.35;;;13.70;88.90;;;;;;5085695;28;20801;-82
2021/05/15 06:08:07;;;;;;;13.98;3.97;;;13.80;88.80;;;;;;5094749;28;20024;-78
2021/05/15 06:10:35;;;;;;;13.70;3.38;;;13.80;88.10;;;;;;5093908;28;20048;-80
2021/05/15 06:13:01;;;;;;;9.55;3.03;;;13.90;88.20;;;;;;5095714;28;20024;-80
2021/05/15 06:15:27;;;;;;;10.10;2.88;;;14.00;88.60;;;;;;5096510;28;20077;-80
2021/05/15 06:17:53;;;;;;;10.70;3.13;;;14.10;87.40;;;;;;5094118;28;20036;-80
2021/05/15 06:20:19;;;;;;;10.23;2.97;;;14.00;87.50;;;;;;5095692;28;20099;-80
2021/05/15 06:22:44;;;;;;;9.68;2.78;;;14.10;87.70;;;;;;5095379;28;20067;-80
2021/05/15 06:25:11;;;;;;;9.65;3.22;;;14.10;87.40;;;;;;5093901;28;20024;-79
2021/05/15 06:27:37;;;;;;;11.13;2.40;;;14.10;86.90;;;;;;5093062;28;20057;-79
2021/05/15 06:30:04;;;;;;;14.90;2.92;;;14.10;87.00;;;;;;5095110;28;20429;-79
2021/05/15 06:32:29;;;;;;;10.68;3.10;;;14.20;86.80;;;;;;5094101;28;20104;-79
2021/05/15 06:34:55;;;;;;;11.30;3.22;;;14.30;85.60;;;;;;5092530;28;20024;-78
2021/05/15 06:37:21;;;;;;;12.25;3.30;;;14.50;85.50;;;;;;5093997;28;20145;-79
2021/05/15 06:39:46;;;;;;;11.00;3.13;;;14.60;85.20;;;;;;5094844;28;20024;-79
2021/05/15 06:42:12;;;;;;;13.15;3.53;;;14.60;85.10;;;;;;5092744;28;20024;-80
2021/05/15 06:44:38;;;;;;;8.90;2.58;;;14.60;84.30;;;;;;5094178;28;20015;-78
2021/05/15 06:47:04;;;;;;;11.50;3.03;;;14.70;83.90;;;;;;5091562;28;20035;-79
2021/05/15 06:49:29;;;;;;;9.20;2.80;;;14.80;84.20;;;;;;5090009;28;20111;-79
2021/05/15 06:51:55;;;;;;;10.98;2.67;;;14.80;83.40;;;;;;5093616;28;20077;-79
2021/05/15 06:54:23;;;;;;;11.35;3.85;;;14.90;83.80;;;;;;5095903;28;20088;-79
2021/05/15 06:56:49;;;;;;;14.93;3.40;;;14.90;83.10;;;;;;5095339;28;20077;-80
2021/05/15 06:59:15;;;;;;;8.35;2.92;;;15.00;81.70;;;;;;5104607;28;20024;-79
2021/05/15 07:01:40;;;;;;;11.82;3.28;;;15.00;82.60;;;;;;5095386;28;20107;-79
2021/05/15 07:04:06;;;;;;;10.75;3.10;;;15.10;82.60;;;;;;5096206;28;20016;-79
2021/05/15 07:06:32;;;;;;;10.18;3.05;;;15.30;81.40;;;;;;5094538;28;20069;-79
2021/05/15 07:08:57;;;;;;;8.65;3.28;;;15.40;79.80;;;;;;5089776;28;20033;-79
2021/05/15 07:11:23;;;;;;;13.32;3.13;;;15.50;80.30;;;;;;5073993;28;20032;-79
2021/05/15 07:13:48;;;;;;;13.90;3.17;;;15.90;79.80;;;;;;5075830;28;20029;-80
2021/05/15 07:16:14;;;;;;;9.63;3.30;;;16.60;76.00;;;;;;5074471;28;20111;-77
2021/05/15 07:18:40;;;;;;;11.80;3.10;;;16.60;75.50;;;;;;5075256;28;20030;-77
2021/05/15 07:21:06;;;;;;;9.77;3.30;;;16.40;75.90;;;;;;5094461;28;20028;-77
2021/05/15 07:23:31;;;;;;;10.75;3.50;;;16.10;77.40;;;;;;5090859;28;20474;-77
2021/05/15 07:25:57;;;;;;;8.93;3.33;;;16.20;77.20;;;;;;5075881;28;20471;-79
2021/05/15 07:28:23;;;;;;;11.70;3.40;;;16.20;77.40;;;;;;5074336;28;20044;-79
2021/05/15 07:30:49;;;;;;;9.43;2.65;;;16.40;77.00;;;;;;5082403;28;20032;-80
2021/05/15 07:33:15;;;;;;;8.25;2.40;;;16.90;75.20;;;;;;5095104;28;20445;-78
2021/05/15 07:35:40;;;;;;;11.10;3.03;;;17.20;73.50;;;;;;5089193;28;20036;-79
2021/05/15 07:38:06;;;;;;;11.75;3.15;;;17.40;73.10;;;;;;5084366;28;20085;-79
2021/05/15 07:40:33;;;;;;;8.70;2.90;;;17.20;72.90;;;;;;5088334;28;20021;-80
2021/05/15 07:42:58;;;;;;;9.27;3.05;;;17.00;72.50;;;;;;5094453;28;20020;-80
2021/05/15 07:45:24;;;;;;;9.07;3.22;;;17.10;70.90;;;;;;5094766;28;20036;-79
2021/05/15 07:47:50;;;;;;;8.88;3.00;;;17.00;73.10;;;;;;5095215;28;20024;-80
2021/05/15 07:50:16;;;;;;;7.68;2.13;;;17.80;72.10;;;;;;5089665;28;20024;-79
2021/05/15 07:52:41;;;;;;;5.43;1.88;;;17.70;69.80;;;;;;5087440;28;20027;-79
2021/05/15 07:55:09;;;;;;;8.82;2.60;;;17.30;69.50;;;;;;5094873;28;20027;-79
2021/05/15 07:57:34;;;;;;;8.43;2.83;;;17.00;72.60;;;;;;5093057;28;20020;-79
2021/05/15 08:00:03;;;;;;;9.25;2.42;;;16.90;72.00;;;;;;5091940;28;20392;-77
2021/05/15 08:02:29;;;;;;;7.65;2.30;;;17.50;70.30;;;;;;5091849;28;20081;-75
2021/05/15 08:04:55;;;;;;;9.32;3.05;;;18.20;67.70;;;;;;5093030;28;20444;-83
2021/05/15 08:07:21;;;;;;;8.05;2.65;;;17.80;68.40;;;;;;5087194;28;20500;-74
2021/05/15 08:09:47;;;;;;;9.27;2.83;;;17.70;71.00;;;;;;5072886;28;20040;-72
2021/05/15 08:12:13;;;;;;;8.63;3.03;;;17.40;71.20;;;;;;5072990;28;20052;-73
2021/05/15 08:14:39;;;;;;;8.18;2.20;;;17.40;72.20;;;;;;5083670;28;20103;-72
2021/05/15 08:17:04;;;;;;;10.82;3.28;;;17.70;70.50;;;;;;5073556;28;20522;-71
2021/05/15 08:19:30;;;;;;;8.25;2.65;;;18.70;70.40;;;;;;5092892;28;20036;-72
2021/05/15 08:21:56;;;;;;;10.90;2.85;;;19.40;65.60;;;;;;5091283;28;20411;-68
2021/05/15 08:24:21;;;;;;;8.50;2.40;;;18.90;65.60;;;;;;5092112;28;20076;-71
2021/05/15 08:26:49;;;;;;;7.20;2.80;;;18.80;65.40;;;;;;5092713;28;20059;-78
2021/05/15 08:29:17;;;;;;;8.70;2.70;;;18.40;67.30;;;;;;5090411;28;20044;-81
2021/05/15 08:31:43;;;;;;;10.20;2.83;;;18.50;68.30;;;;;;5092464;28;20032;-81
2021/05/15 08:34:08;;;;;;;8.73;2.42;;;18.80;66.60;;;;;;5093745;28;20032;-81
2021/05/15 08:36:34;;;;;;;9.25;2.78;;;19.40;64.80;;;;;;5092269;28;20071;-82
2021/05/15 08:39:00;;;;;;;7.30;2.22;;;19.20;64.60;;;;;;5090987;28;20375;-81
2021/05/15 08:41:26;;;;;;;10.77;3.13;;;18.90;64.50;;;;;;5091580;28;20103;-81
2021/05/15 08:43:53;;;;;;;7.75;2.58;;;18.40;64.30;;;;;;5091760;28;20027;-82
2021/05/15 08:46:21;;;;;;;6.72;2.38;;;18.20;66.00;;;;;;5089628;28;20885;-80
2021/05/15 08:48:48;;;;;;;5.90;2.45;;;19.40;64.80;;;;;;5094258;28;20024;-81
2021/05/15 08:51:13;;;;;;;9.60;3.35;;;20.30;60.80;;;;;;5093110;28;20051;-82
2021/05/15 08:53:40;;;;;;;10.10;3.70;;;20.50;59.50;;;;;;5092797;28;20043;-81
2021/05/15 08:56:08;;;;;;;9.82;3.85;;;20.40;59.70;;;;;;5094174;28;20071;-82
2021/05/15 08:58:38;;;;;;;6.70;2.58;;;20.00;60.30;;;;;;5091046;28;20078;-82
2021/05/15 09:01:06;;;;;;;8.95;2.60;;;19.90;59.60;;;;;;5092985;28;20016;-81
2021/05/15 09:03:33;;;;;;;8.80;2.67;;;19.80;61.80;;;;;;5091695;28;20016;-81
2021/05/15 09:05:59;;;;;;;7.82;2.45;;;19.60;61.10;;;;;;5092037;28;20013;-81
2021/05/15 09:08:25;;;;;;;8.80;2.63;;;19.40;60.10;;;;;;5093303;28;20043;-80
2021/05/15 09:10:51;;;;;;;8.85;2.45;;;19.00;62.00;;;;;;5092328;28;20024;-80
2021/05/15 09:13:26;;;;;;;10.13;2.22;;;18.60;63.40;;;;;;5098151;28;20868;-81
2021/05/15 09:15:52;;;;;;;7.40;2.72;;;18.50;63.80;;;;;;5095204;28;20077;-81
2021/05/15 09:18:23;;;;;;;9.63;2.30;;;18.30;64.10;;;;;;5097756;28;20620;-82
2021/05/15 09:20:52;;;;;;;8.57;2.60;;;18.30;64.70;;;;;;5097583;28;20028;-82
2021/05/15 09:23:27;;;;;;;8.25;2.47;;;18.50;65.20;;;;;;5096180;28;20584;-86
2021/05/15 09:26:08;;;;;;;7.22;2.75;;;18.90;63.50;;;;;;5094008;28;20447;-82
2021/05/15 09:28:46;;;;;;;7.07;2.28;;;19.00;64.10;;;;;;5092243;28;20407;-83
2021/05/15 09:31:22;;;;;;;8.15;2.30;;;19.30;62.60;;;;;;5093492;28;20032;-81
2021/05/15 09:33:58;;;;;;;8.23;2.10;;;19.30;62.50;;;;;;5091803;28;20036;-87
2021/05/15 09:36:31;;;;;;;9.60;2.70;;;;;;;;;;5096079;28;20028;-80
2021/05/15 09:39:08;;;;;;;5.10;2.08;;;;;;;;;;5096779;28;20038;-81
2021/05/15 09:41:44;;;;;;;7.75;2.60;;;18.90;62.00;;;;;;5094040;28;20020;-82
2021/05/15 09:44:12;;;;;;;5.18;2.25;;;;;;;;;;5096337;28;20115;-81
2021/05/15 09:46:39;;;;;;;5.45;2.50;;;;;;;;;;5096517;28;20501;-82
2021/05/15 09:49:05;;;;;;;8.20;2.47;;;;;;;;;;5095605;28;20024;-82
2021/05/15 09:51:31;;;;;;;7.22;2.50;;;;;;;;;;5095217;28;20035;-82
2021/05/15 09:54:31;;;;;;;6.50;2.33;;;23.20;55.90;;;;;;5092923;28;20036;-80
2021/05/15 09:57:01;;;;;;;9.80;2.47;;;21.50;53.10;;;;;;5068863;28;20113;-81
2021/05/15 09:59:31;;;;;;;;;;;21.00;54.50;;;;;;5092563;28;20028;-82
2021/05/15 10:01:58;;;;;;;10.02;2.42;;;20.50;55.30;;;;;;5094925;28;19912;-80
2021/05/15 10:04:25;;;;;;;8.07;2.72;;;20.30;56.70;;;;;;5095058;28;20032;-83
2021/05/15 10:06:51;;;;;;;8.02;2.15;;;19.80;57.80;;;;;;5093905;28;20024;-80
2021/05/15 10:09:34;;;;;;;10.20;2.78;;;19.40;58.00;;;;;;5094561;28;20451;-81
2021/05/15 10:12:02;;;;;;;9.10;2.28;;;18.90;60.40;;;;;;5094867;28;20097;-80
2021/05/15 10:14:28;;;;;;;6.90;2.45;;;18.70;61.70;;;;;;5094774;28;20378;-80
2021/05/15 10:16:55;;;;;;;10.95;3.13;;;18.90;62.90;;;;;;5079789;28;20517;-80
2021/05/15 10:19:21;;;;;;;11.48;3.10;;;19.10;63.40;;;;;;5089414;28;20028;-78
2021/05/15 10:21:47;;;;;;;8.50;2.92;;;19.50;60.70;;;;;;5090523;28;20553;-78
2021/05/15 10:24:23;;;;;;;9.38;3.35;;;19.60;59.60;;;;;;5093330;28;20024;-77
2021/05/15 10:27:07;;;;;;;6.60;1.98;;;19.50;60.10;;;;;;5093799;28;20047;-77
2021/05/15 10:29:39;;;;;;;8.15;2.25;;;19.10;60.30;;;;;;5092038;28;20052;-77
2021/05/15 10:32:08;;;;;;;6.43;1.92;;;19.10;61.00;;;;;;5094888;28;20020;-77
2021/05/15 10:34:34;;;;;;;8.80;1.87;;;19.40;60.40;;;;;;5090225;28;20055;-78
2021/05/15 10:37:02;;;;;;;8.80;1.77;;;19.70;61.40;;;;;;5095233;28;20507;-76
2021/05/15 10:39:29;;;;;;;9.52;2.35;;;19.80;61.00;;;;;;5092597;28;20066;-77
2021/05/15 10:41:56;;;;;;;7.55;2.03;;;20.00;61.40;;;;;;5091952;28;20070;-77
2021/05/15 10:44:22;;;;;;;5.63;1.80;;;20.00;60.10;;;;;;5091597;28;20044;-78
2021/05/15 10:46:52;;;;;;;5.35;1.77;;;20.10;58.00;;;;;;5094323;28;20387;-77
2021/05/15 10:49:18;;;;;;;;;;;20.20;59.60;;;;;;5094924;28;20024;-77
2021/05/15 10:51:47;;;;;;;7.15;1.75;;;20.10;59.30;;;;;;5095558;28;20002;-77
2021/05/15 10:54:29;;;;;;;6.43;1.95;;;19.80;59.10;;;;;;5093347;28;20034;-78
2021/05/15 10:57:02;;;;;;;6.70;1.85;;;19.80;59.80;;;;;;5092812;28;20032;-79
2021/05/15 10:59:28;;;;;;;3.67;1.55;;;19.60;61.20;;;;;;5088623;28;20016;-78
2021/05/15 11:01:59;;;;;;;8.70;2.03;;;19.80;61.30;;;;;;5082011;28;20034;-78
2021/05/15 11:04:31;;;;;;;7.25;2.17;;;20.10;60.00;;;;;;5079373;28;20020;-80
2021/05/15 11:07:08;;;;;;;8.25;2.25;;;20.10;58.50;;;;;;5086579;28;20028;-77
2021/05/15 11:10:01;;;;;;;7.15;1.83;;;20.20;60.10;;;;;;5084965;28;20029;-76
2021/05/15 11:12:38;;;;;;;8.98;2.70;;;20.10;59.30;;;;;;5086548;28;20413;-82
2021/05/15 11:15:07;;;;;;;4.00;1.48;;;19.70;59.00;;;;;;5087803;28;20300;-75
2021/05/15 11:17:33;;;;;;;5.53;1.63;;;19.60;58.80;;;;;;5089797;28;20459;-76
2021/05/15 11:20:13;;;;;;;6.47;2.15;;;19.50;59.90;;;;;;5083656;28;20051;-77
2021/05/15 11:22:50;;;;;;;5.85;2.22;;;19.20;63.10;;;;;;5085962;28;20028;-76
2021/05/15 11:25:15;;;;;;;8.05;1.90;;;19.20;62.40;;;;;;5084157;28;20035;-77
2021/05/15 11:27:51;;;;;;;7.05;1.73;;;19.40;63.00;;;;;;5083578;28;20020;-75
2021/05/15 11:30:31;;;;;;;7.70;1.92;;;19.40;62.60;;;;;;5089087;28;20078;-77
2021/05/15 11:33:06;;;;;;;6.55;1.42;;;19.60;62.40;;;;;;5089174;28;20076;-76
2021/05/15 11:35:38;;;;;;;7.40;1.27;;;19.70;60.40;;;;;;5087801;28;20032;-76
2021/05/15 11:38:07;;;;;;;4.90;1.35;;;19.70;59.90;;;;;;5086215;28;20020;-76
2021/05/15 11:40:35;;;;;;;4.50;1.35;;;19.80;60.40;;;;;;5086130;28;20587;-75
2021/05/15 11:43:00;;;;;;;6.85;1.60;;;19.90;60.60;;;;;;5083532;28;20013;-76
2021/05/15 11:45:28;;;;;;;4.53;1.35;;;20.10;58.80;;;;;;5087321;28;20046;-75
2021/05/15 11:48:19;;;;;;;4.65;1.60;;;20.10;57.20;;;;;;5088215;28;20016;-77
2021/05/15 11:51:09;;;;;;;8.20;1.67;;;20.00;56.80;;;;;;5084030;28;20162;-75
2021/05/15 11:53:39;;;;;;;4.55;1.50;;;20.10;59.80;;;;;;5088174;28;20050;-85
2021/05/15 11:56:26;;;;;;;4.57;1.33;;;20.20;58.80;;;;;;5088505;28;20047;-78
2021/05/15 11:59:00;;;;;;;6.65;1.23;;;20.10;58.30;;;;;;5088810;28;20031;-77
2021/05/15 12:01:27;;;;;;;6.18;1.48;;;20.20;58.90;;;;;;5087132;28;20020;-78
2021/05/15 12:04:05;;;;;;;6.40;1.60;;;20.50;60.90;;;;;;5086655;28;20016;-78
2021/05/15 12:06:31;;;;;;;6.93;1.95;;;20.60;58.10;;;;;;5080482;28;20032;-77
2021/05/15 12:08:57;;;;;;;4.55;1.33;;;20.70;57.40;;;;;;5084688;28;20541;-77
2021/05/15 12:11:25;;;;;;;6.72;1.70;;;20.40;54.90;;;;;;5087993;28;20496;-77
2021/05/15 12:13:52;;;;;;;5.68;1.45;;;20.40;56.60;;;;;;5091042;28;20024;-76
2021/05/15 12:16:19;;;;;;;6.65;2.20;;;20.20;56.80;;;;;;5088685;28;20058;-76
2021/05/15 12:18:45;;;;;;;6.97;1.65;;;19.90;59.40;;;;;;5080974;28;20050;-77
2021/05/15 12:21:11;;;;;;;9.25;2.00;;;19.80;63.50;;;;;;5085132;28;20016;-77
2021/05/15 12:23:37;;;;;;;5.63;1.67;;;19.90;65.20;;;;;;5088144;28;20023;-77
2021/05/15 12:26:08;;;;;;;5.10;1.70;;;19.90;62.20;;;;;;5087743;28;20056;-76
2021/05/15 12:28:41;;;;;;;5.55;1.35;;;19.80;58.20;;;;;;5084398;28;20036;-76
2021/05/15 12:31:19;;;;;;;3.92;1.35;;;19.70;58.10;;;;;;5087998;28;20027;-76
2021/05/15 12:33:45;;;;;;;7.43;1.83;;;19.80;57.80;;;;;;5080031;28;20037;-77
2021/05/15 12:36:12;;;;;;;6.07;1.48;;;19.80;57.90;;;;;;5069951;28;20032;-76
2021/05/15 12:38:45;;;;;;;6.20;1.77;;;19.70;59.00;;;;;;5082203;28;20031;-76
2021/05/15 12:41:13;;;;;;;5.40;1.50;;;19.90;57.60;;;;;;5088207;28;20101;-76
2021/05/15 12:43:42;;;;;;;4.85;1.27;;;20.10;58.30;;;;;;5093685;28;20020;-76
2021/05/15 12:46:23;;;;;;;4.50;1.08;;;20.00;55.30;;;;;;5097541;28;20023;-76
2021/05/15 12:48:57;;;;;;;3.88;1.08;;;19.70;54.40;;;;;;5078138;28;20430;-76
2021/05/15 12:51:27;;;;;;;4.50;1.05;;;19.80;57.50;;;;;;5098840;28;20043;-76
2021/05/15 12:53:53;;;;;;;6.90;1.52;;;19.80;57.90;;;;;;5077780;28;20036;-76
2021/05/15 12:56:30;;;;;;;5.43;1.02;;;19.70;59.60;;;;;;5093416;28;20032;-79